Broken Bow, NE

3:53 PM CDT on April 30, 2017 (GMT -0500)
Broken Bow Municipal | | Change Station

Elev 2546 ft 41.44 °N, 99.64 °W | Updated 8 minutes ago

Light Snow
Light Snow Mist
34 °F
Feels Like 22 °F
N
24
Wind Variable Wind from North
Gusts 33 mph

Today
High -- | Low -- °F
--% Chance of Precip.
Yesterday
High -- | Low -- °F
Precip. -- in
Pressure 29.72 in
Visibility 1.2 miles
Clouds Overcast 700 ft
Windchill 22 °F
Dew Point 33 °F
Humidity 96%
Rainfall 0.15 in
Snow Depth Not available.
6:36 AM 8:35 PM
Waxing Crescent, 26% visible
SPECI KBBW 302045Z AUTO 01021G29KT 1 1/4SM -SN BR OVC007 01/01 A2972 RMK AO2 PK WND 36037/1959 SNB38 TSE00 P0000 I1000 T00110006 $
Pressure 29.72 in
Visibility 1.2 miles
Clouds Overcast 700 ft
Windchill 22 °F
Dew Point 33 °F
Humidity 96%
Rainfall 0.15 in
Snow Depth Not available.
6:36 AM 8:35 PM
Waxing Crescent, 26% visible
SPECI KBBW 302045Z AUTO 01021G29KT 1 1/4SM -SN BR OVC007 01/01 A2972 RMK AO2 PK WND 36037/1959 SNB38 TSE00 P0000 I1000 T00110006 $

Get Severe Weather Alerts

Thanks for signing up!

Be on the lookout for a verification email in your inbox.

You'll start receiving the daily forecast at 8 AM.

×

10-Day Weather Forecast

Almanac

Astronomy

Apr. 30, 2017 Rise Set
Actual Time
Civil Twilight
Nautical Twilight
Astronomical Twilight
Moon
Length of Visible Light
Length of Day
Tomorrow will be .
, % of the Moon is Illuminated

Today's Extremes

State Highs State Lows

Community

WunderPhotos

WunderBlog® & News

Nearby

Air Quality

  Air Quality AQ Index Pollutant
Not available.

Snow Depth

Station Depth Elevation

Earthquake Activity

City Distance Mag. Time & Date
Minimum magnitude displayed is 2.5.

Coastal Water Temperatures

Place Temperature

Stations

Nearby Weather Stations

Station Location Temp. Windchill Dew Point Humidity Wind Precip. Elev Updated Type
                   

Watches & Warnings

There are currently no watches in effect.